Pagrindinis puslapis
METAR-TAF:

METAR-TAF

Oro uostai :

Port Sudan, Sudanas

platuma: 19-26N, ilguma: 037-14E, Aukštis: 138 m

Dabartinis oras

Ataskaita buvo paskelbta 1 valandą ir 3 minutes, ne 01:00 UTC
Vėjas 10 kt iš Šiaurės
Temperatūra 18°C
Drėgmė 73%
Slėgis 1018 hPa
Matomumas 10 km arba daugiau
nėra debesų žemiau 1500 m ir nėra kamuolinių lietaus debesų

METAR: HSPN 210100Z 35010KT CAVOK 18/13 Q1018

Laikas: 04:03 (02:03 UTC)

Prognozė

Ataskaita buvo paskelbta 3 valandos ir 3 minutes, ne 23:00 UTC
Prognozė galioja nuo 21 metu 00 UTC su 22 metu 06 UTC
Vėjas 8 kt iš Šiaurės/Šiaurės Vakarų su gūsio iki 18 kt
Matomumas 10 km arba daugiau
Išsisklaidę debesys ne aukštis 13000 ft
Tapsmas
nuo 21 metu 10 UTC su 21 metu 12 UTC
Vėjas 10 kt iš Šiaurės Rytų su gūsio iki 22 kt
Matomumas 10 km arba daugiau
Mažai debesys ne aukštis 3000 ft
Išsisklaidę debesys ne aukštis 13000 ft

TAF: HSPN 202300Z 2100/2206 34008G18KT 9999 SCT130 BECMG 2110/2112 04010G22KT 9999 FEW030 SCT130

Orai ataskaitas ir orų prognozės (METAR, TAF).

turimą stotys yra geltonos ir raudonos taškus žemėlapyje.

Perkelti pele per norėdami pamatyti stoties vardą.

Tada spustelėkite, norėdami matyti oro stebėjimo ir prognozės.

Norėdami pakeisti žemėlapį: spustelėkite ant žalios mygtukų su juodo kryžiaus žemyn,; žalią mygtuką su brūkšneliu, jei norite nutolinti; arba žalių rodyklių gretimoms žemėlapius.


METAR-TAF: